sensor_id;sensor_type;location;lat;lon;timestamp;temperature;humidity
18658;DHT22;9458;50.942;5.074;2023-12-07T00:00:33;2.30;99.90
18658;DHT22;9458;50.942;5.074;2023-12-07T00:03:00;2.20;99.90
18658;DHT22;9458;50.942;5.074;2023-12-07T00:05:27;2.30;99.90
18658;DHT22;9458;50.942;5.074;2023-12-07T00:07:54;2.50;99.90
18658;DHT22;9458;50.942;5.074;2023-12-07T00:10:21;2.50;99.90
18658;DHT22;9458;50.942;5.074;2023-12-07T00:12:49;2.70;99.90
18658;DHT22;9458;50.942;5.074;2023-12-07T00:15:16;2.60;99.90
18658;DHT22;9458;50.942;5.074;2023-12-07T00:17:42;2.50;99.90
18658;DHT22;9458;50.942;5.074;2023-12-07T00:20:10;2.60;99.90
18658;DHT22;9458;50.942;5.074;2023-12-07T00:22:37;2.80;99.90
18658;DHT22;9458;50.942;5.074;2023-12-07T00:25:04;2.90;99.90
18658;DHT22;9458;50.942;5.074;2023-12-07T00:27:31;3.00;99.90
18658;DHT22;9458;50.942;5.074;2023-12-07T00:30:00;2.70;99.90
18658;DHT22;9458;50.942;5.074;2023-12-07T00:32:26;2.60;99.90
18658;DHT22;9458;50.942;5.074;2023-12-07T00:34:53;2.40;99.90
18658;DHT22;9458;50.942;5.074;2023-12-07T00:37:20;2.30;99.90
18658;DHT22;9458;50.942;5.074;2023-12-07T00:39:47;2.40;99.90
18658;DHT22;9458;50.942;5.074;2023-12-07T00:42:14;2.60;99.90
18658;DHT22;9458;50.942;5.074;2023-12-07T00:44:41;2.60;99.90
18658;DHT22;9458;50.942;5.074;2023-12-07T00:47:10;2.80;99.90
18658;DHT22;9458;50.942;5.074;2023-12-07T00:49:37;2.90;99.90
18658;DHT22;9458;50.942;5.074;2023-12-07T00:52:04;3.00;99.90
18658;DHT22;9458;50.942;5.074;2023-12-07T00:54:31;3.00;99.90
18658;DHT22;9458;50.942;5.074;2023-12-07T00:56:58;3.00;99.90
18658;DHT22;9458;50.942;5.074;2023-12-07T00:59:24;2.90;99.90
18658;DHT22;9458;50.942;5.074;2023-12-07T01:01:51;2.80;99.90
18658;DHT22;9458;50.942;5.074;2023-12-07T01:04:20;2.80;99.90
18658;DHT22;9458;50.942;5.074;2023-12-07T01:06:46;3.00;99.90
18658;DHT22;9458;50.942;5.074;2023-12-07T01:09:13;3.00;99.90
18658;DHT22;9458;50.942;5.074;2023-12-07T01:11:40;3.00;99.90
18658;DHT22;9458;50.942;5.074;2023-12-07T01:14:07;3.00;99.90
18658;DHT22;9458;50.942;5.074;2023-12-07T01:16:34;2.80;99.90
18658;DHT22;9458;50.942;5.074;2023-12-07T01:19:01;2.70;99.90
18658;DHT22;9458;50.942;5.074;2023-12-07T01:21:29;2.50;99.90
18658;DHT22;9458;50.942;5.074;2023-12-07T01:23:56;2.60;99.90
18658;DHT22;9458;50.942;5.074;2023-12-07T01:26:23;2.80;99.90
18658;DHT22;9458;50.942;5.074;2023-12-07T01:28:50;2.80;99.90
18658;DHT22;9458;50.942;5.074;2023-12-07T01:31:17;2.90;99.90
18658;DHT22;9458;50.942;5.074;2023-12-07T01:33:44;2.80;99.90
18658;DHT22;9458;50.942;5.074;2023-12-07T01:36:11;2.90;99.90
18658;DHT22;9458;50.942;5.074;2023-12-07T01:38:39;3.10;99.90
18658;DHT22;9458;50.942;5.074;2023-12-07T01:41:06;3.10;99.90
18658;DHT22;9458;50.942;5.074;2023-12-07T01:43:33;3.10;99.90
18658;DHT22;9458;50.942;5.074;2023-12-07T01:46:00;3.00;99.90
18658;DHT22;9458;50.942;5.074;2023-12-07T01:48:28;3.00;99.90
18658;DHT22;9458;50.942;5.074;2023-12-07T01:50:55;3.10;99.90
18658;DHT22;9458;50.942;5.074;2023-12-07T01:53:23;3.30;99.90
18658;DHT22;9458;50.942;5.074;2023-12-07T01:55:53;3.40;99.90
18658;DHT22;9458;50.942;5.074;2023-12-07T01:58:20;3.40;99.90
18658;DHT22;9458;50.942;5.074;2023-12-07T02:00:47;3.30;99.90
18658;DHT22;9458;50.942;5.074;2023-12-07T02:03:14;3.10;99.90
18658;DHT22;9458;50.942;5.074;2023-12-07T02:05:43;3.00;99.90
18658;DHT22;9458;50.942;5.074;2023-12-07T02:08:12;2.90;99.90
18658;DHT22;9458;50.942;5.074;2023-12-07T02:10:40;3.00;99.90
18658;DHT22;9458;50.942;5.074;2023-12-07T02:13:08;3.20;99.90
18658;DHT22;9458;50.942;5.074;2023-12-07T02:15:35;3.40;99.90
18658;DHT22;9458;50.942;5.074;2023-12-07T02:18:03;3.40;99.90
18658;DHT22;9458;50.942;5.074;2023-12-07T02:20:34;3.30;99.90
18658;DHT22;9458;50.942;5.074;2023-12-07T02:23:02;3.30;99.90
18658;DHT22;9458;50.942;5.074;2023-12-07T02:25:31;3.40;99.90
18658;DHT22;9458;50.942;5.074;2023-12-07T02:28:00;3.40;99.90
18658;DHT22;9458;50.942;5.074;2023-12-07T02:30:27;3.30;99.90
18658;DHT22;9458;50.942;5.074;2023-12-07T02:32:54;3.10;99.90
18658;DHT22;9458;50.942;5.074;2023-12-07T02:35:21;3.20;99.90
18658;DHT22;9458;50.942;5.074;2023-12-07T02:37:48;3.20;99.90
18658;DHT22;9458;50.942;5.074;2023-12-07T02:40:16;3.10;99.90
18658;DHT22;9458;50.942;5.074;2023-12-07T02:42:43;3.00;99.90
18658;DHT22;9458;50.942;5.074;2023-12-07T02:45:12;3.10;99.90
18658;DHT22;9458;50.942;5.074;2023-12-07T02:47:39;2.90;99.90
18658;DHT22;9458;50.942;5.074;2023-12-07T02:50:06;2.80;99.90
18658;DHT22;9458;50.942;5.074;2023-12-07T02:52:34;2.80;99.90
18658;DHT22;9458;50.942;5.074;2023-12-07T02:55:01;2.90;99.90
18658;DHT22;9458;50.942;5.074;2023-12-07T02:57:28;3.10;99.90
18658;DHT22;9458;50.942;5.074;2023-12-07T02:59:54;3.30;99.90
18658;DHT22;9458;50.942;5.074;2023-12-07T03:02:23;3.30;99.90
18658;DHT22;9458;50.942;5.074;2023-12-07T03:04:49;3.20;99.90
18658;DHT22;9458;50.942;5.074;2023-12-07T03:07:16;3.10;99.90
18658;DHT22;9458;50.942;5.074;2023-12-07T03:09:43;2.90;99.90
18658;DHT22;9458;50.942;5.074;2023-12-07T03:12:10;3.00;99.90
18658;DHT22;9458;50.942;5.074;2023-12-07T03:14:37;3.00;99.90
18658;DHT22;9458;50.942;5.074;2023-12-07T03:17:04;3.10;99.90
18658;DHT22;9458;50.942;5.074;2023-12-07T03:19:32;3.10;99.90
18658;DHT22;9458;50.942;5.074;2023-12-07T03:21:59;3.00;99.90
18658;DHT22;9458;50.942;5.074;2023-12-07T03:24:26;3.00;99.90
18658;DHT22;9458;50.942;5.074;2023-12-07T03:26:52;3.00;99.90
18658;DHT22;9458;50.942;5.074;2023-12-07T03:29:19;2.90;99.90
18658;DHT22;9458;50.942;5.074;2023-12-07T03:31:46;2.90;99.90
18658;DHT22;9458;50.942;5.074;2023-12-07T03:34:13;2.80;99.90
18658;DHT22;9458;50.942;5.074;2023-12-07T03:36:44;2.70;99.90
18658;DHT22;9458;50.942;5.074;2023-12-07T03:39:11;2.80;99.90
18658;DHT22;9458;50.942;5.074;2023-12-07T03:41:38;3.00;99.90
18658;DHT22;9458;50.942;5.074;2023-12-07T03:44:05;3.00;99.90
18658;DHT22;9458;50.942;5.074;2023-12-07T03:46:32;2.90;99.90
18658;DHT22;9458;50.942;5.074;2023-12-07T03:48:59;2.90;99.90
18658;DHT22;9458;50.942;5.074;2023-12-07T03:51:26;2.90;99.90
18658;DHT22;9458;50.942;5.074;2023-12-07T03:53:54;2.90;99.90
18658;DHT22;9458;50.942;5.074;2023-12-07T03:56:22;3.00;99.90
18658;DHT22;9458;50.942;5.074;2023-12-07T03:58:49;3.00;99.90
18658;DHT22;9458;50.942;5.074;2023-12-07T04:01:16;3.10;99.90
18658;DHT22;9458;50.942;5.074;2023-12-07T04:03:43;3.10;99.90
18658;DHT22;9458;50.942;5.074;2023-12-07T04:06:09;3.10;99.90
18658;DHT22;9458;50.942;5.074;2023-12-07T04:08:36;3.00;99.90
18658;DHT22;9458;50.942;5.074;2023-12-07T04:11:05;3.00;99.90
18658;DHT22;9458;50.942;5.074;2023-12-07T04:13:32;3.10;99.90
18658;DHT22;9458;50.942;5.074;2023-12-07T04:15:59;3.10;99.90
18658;DHT22;9458;50.942;5.074;2023-12-07T04:18:26;3.10;99.90
18658;DHT22;9458;50.942;5.074;2023-12-07T04:20:52;3.00;99.90
18658;DHT22;9458;50.942;5.074;2023-12-07T04:23:19;2.80;99.90
18658;DHT22;9458;50.942;5.074;2023-12-07T04:25:46;3.00;99.90
18658;DHT22;9458;50.942;5.074;2023-12-07T04:28:14;3.10;99.90
18658;DHT22;9458;50.942;5.074;2023-12-07T04:30:41;3.10;99.90
18658;DHT22;9458;50.942;5.074;2023-12-07T04:33:08;3.10;99.90
18658;DHT22;9458;50.942;5.074;2023-12-07T04:35:35;3.20;99.90
18658;DHT22;9458;50.942;5.074;2023-12-07T04:38:02;3.30;99.90
18658;DHT22;9458;50.942;5.074;2023-12-07T04:40:29;3.30;99.90
18658;DHT22;9458;50.942;5.074;2023-12-07T04:42:56;3.20;99.90
18658;DHT22;9458;50.942;5.074;2023-12-07T04:45:24;3.10;99.90
18658;DHT22;9458;50.942;5.074;2023-12-07T04:47:51;3.10;99.90
18658;DHT22;9458;50.942;5.074;2023-12-07T04:50:18;3.30;99.90
18658;DHT22;9458;50.942;5.074;2023-12-07T04:52:45;3.40;99.90
18658;DHT22;9458;50.942;5.074;2023-12-07T04:55:12;3.30;99.90
18658;DHT22;9458;50.942;5.074;2023-12-07T04:57:38;3.20;99.90
18658;DHT22;9458;50.942;5.074;2023-12-07T05:00:06;3.10;99.90
18658;DHT22;9458;50.942;5.074;2023-12-07T05:02:36;2.90;99.90
18658;DHT22;9458;50.942;5.074;2023-12-07T05:05:04;2.80;99.90
18658;DHT22;9458;50.942;5.074;2023-12-07T05:07:31;3.00;99.90
18658;DHT22;9458;50.942;5.074;2023-12-07T05:09:59;3.20;99.90
18658;DHT22;9458;50.942;5.074;2023-12-07T05:12:26;3.30;99.90
18658;DHT22;9458;50.942;5.074;2023-12-07T05:14:53;3.30;99.90
18658;DHT22;9458;50.942;5.074;2023-12-07T05:17:20;3.30;99.90
18658;DHT22;9458;50.942;5.074;2023-12-07T05:19:48;3.40;99.90
18658;DHT22;9458;50.942;5.074;2023-12-07T05:22:15;3.30;99.90
18658;DHT22;9458;50.942;5.074;2023-12-07T05:24:42;3.10;99.90
18658;DHT22;9458;50.942;5.074;2023-12-07T05:27:09;3.10;99.90
18658;DHT22;9458;50.942;5.074;2023-12-07T05:29:35;3.20;99.90
18658;DHT22;9458;50.942;5.074;2023-12-07T05:32:02;3.10;99.90
18658;DHT22;9458;50.942;5.074;2023-12-07T05:34:29;3.20;99.90
18658;DHT22;9458;50.942;5.074;2023-12-07T05:36:58;3.10;99.90
18658;DHT22;9458;50.942;5.074;2023-12-07T05:39:25;3.00;99.90
18658;DHT22;9458;50.942;5.074;2023-12-07T05:41:52;2.90;99.90
18658;DHT22;9458;50.942;5.074;2023-12-07T05:44:19;3.00;99.90
18658;DHT22;9458;50.942;5.074;2023-12-07T05:46:47;2.90;99.90
18658;DHT22;9458;50.942;5.074;2023-12-07T05:49:14;3.00;99.90
18658;DHT22;9458;50.942;5.074;2023-12-07T05:51:41;3.00;99.90
18658;DHT22;9458;50.942;5.074;2023-12-07T05:54:10;3.00;99.90
18658;DHT22;9458;50.942;5.074;2023-12-07T05:56:37;3.00;99.90
18658;DHT22;9458;50.942;5.074;2023-12-07T05:59:03;2.90;99.90
18658;DHT22;9458;50.942;5.074;2023-12-07T06:01:31;2.90;99.90
18658;DHT22;9458;50.942;5.074;2023-12-07T06:03:58;3.00;99.90
18658;DHT22;9458;50.942;5.074;2023-12-07T06:06:25;3.00;99.90
18658;DHT22;9458;50.942;5.074;2023-12-07T06:08:52;3.10;99.90
18658;DHT22;9458;50.942;5.074;2023-12-07T06:11:21;3.20;99.90
18658;DHT22;9458;50.942;5.074;2023-12-07T06:13:48;3.10;99.90
18658;DHT22;9458;50.942;5.074;2023-12-07T06:16:14;3.00;99.90
18658;DHT22;9458;50.942;5.074;2023-12-07T06:18:42;3.10;99.90
18658;DHT22;9458;50.942;5.074;2023-12-07T06:21:09;2.90;99.90
18658;DHT22;9458;50.942;5.074;2023-12-07T06:23:36;3.00;99.90
18658;DHT22;9458;50.942;5.074;2023-12-07T06:26:03;2.90;99.90
18658;DHT22;9458;50.942;5.074;2023-12-07T06:28:32;3.00;99.90
18658;DHT22;9458;50.942;5.074;2023-12-07T06:31:04;2.90;99.90
18658;DHT22;9458;50.942;5.074;2023-12-07T06:33:31;2.90;99.90
18658;DHT22;9458;50.942;5.074;2023-12-07T06:35:58;3.00;99.90
18658;DHT22;9458;50.942;5.074;2023-12-07T06:38:25;3.00;99.90
18658;DHT22;9458;50.942;5.074;2023-12-07T06:40:52;3.00;99.90
18658;DHT22;9458;50.942;5.074;2023-12-07T06:43:18;2.90;99.90
18658;DHT22;9458;50.942;5.074;2023-12-07T06:45:47;3.00;99.90
18658;DHT22;9458;50.942;5.074;2023-12-07T06:48:14;3.00;99.90
18658;DHT22;9458;50.942;5.074;2023-12-07T06:50:41;3.00;99.90
18658;DHT22;9458;50.942;5.074;2023-12-07T06:53:08;3.00;99.90
18658;DHT22;9458;50.942;5.074;2023-12-07T06:55:35;3.00;99.90
18658;DHT22;9458;50.942;5.074;2023-12-07T06:58:01;3.00;99.90
18658;DHT22;9458;50.942;5.074;2023-12-07T07:00:28;3.00;99.90
18658;DHT22;9458;50.942;5.074;2023-12-07T07:02:57;3.00;99.90
18658;DHT22;9458;50.942;5.074;2023-12-07T07:05:24;3.30;99.90
18658;DHT22;9458;50.942;5.074;2023-12-07T07:07:51;3.20;99.90
18658;DHT22;9458;50.942;5.074;2023-12-07T07:10:18;3.20;99.90
18658;DHT22;9458;50.942;5.074;2023-12-07T07:12:45;3.20;99.90
18658;DHT22;9458;50.942;5.074;2023-12-07T07:15:11;3.10;99.90
18658;DHT22;9458;50.942;5.074;2023-12-07T07:17:38;3.00;99.90
18658;DHT22;9458;50.942;5.074;2023-12-07T07:20:08;3.00;99.90
18658;DHT22;9458;50.942;5.074;2023-12-07T07:22:34;3.10;99.90
18658;DHT22;9458;50.942;5.074;2023-12-07T07:25:02;3.10;99.90
18658;DHT22;9458;50.942;5.074;2023-12-07T07:27:29;3.10;99.90
18658;DHT22;9458;50.942;5.074;2023-12-07T07:29:57;3.10;99.90
18658;DHT22;9458;50.942;5.074;2023-12-07T07:32:23;3.00;99.90
18658;DHT22;9458;50.942;5.074;2023-12-07T07:34:50;3.00;99.90
18658;DHT22;9458;50.942;5.074;2023-12-07T07:37:19;2.90;99.90
18658;DHT22;9458;50.942;5.074;2023-12-07T07:39:46;2.90;99.90
18658;DHT22;9458;50.942;5.074;2023-12-07T07:42:13;3.00;99.90
18658;DHT22;9458;50.942;5.074;2023-12-07T07:44:40;3.00;99.90
18658;DHT22;9458;50.942;5.074;2023-12-07T07:47:07;3.00;99.90
18658;DHT22;9458;50.942;5.074;2023-12-07T07:49:34;3.00;99.90
18658;DHT22;9458;50.942;5.074;2023-12-07T07:52:00;3.00;99.90
18658;DHT22;9458;50.942;5.074;2023-12-07T07:54:29;3.10;99.90
18658;DHT22;9458;50.942;5.074;2023-12-07T07:56:56;2.90;99.90
18658;DHT22;9458;50.942;5.074;2023-12-07T07:59:23;3.10;99.90
18658;DHT22;9458;50.942;5.074;2023-12-07T08:01:50;3.00;99.90
18658;DHT22;9458;50.942;5.074;2023-12-07T08:04:17;2.90;99.90
18658;DHT22;9458;50.942;5.074;2023-12-07T08:06:44;2.90;99.90
18658;DHT22;9458;50.942;5.074;2023-12-07T08:09:11;2.90;99.90
18658;DHT22;9458;50.942;5.074;2023-12-07T08:11:39;2.80;99.90
18658;DHT22;9458;50.942;5.074;2023-12-07T08:14:06;2.90;99.90
18658;DHT22;9458;50.942;5.074;2023-12-07T08:16:33;3.00;99.90
18658;DHT22;9458;50.942;5.074;2023-12-07T08:19:00;3.10;99.90
18658;DHT22;9458;50.942;5.074;2023-12-07T08:21:27;3.10;99.90
18658;DHT22;9458;50.942;5.074;2023-12-07T08:23:55;3.30;99.90
18658;DHT22;9458;50.942;5.074;2023-12-07T08:26:22;3.40;99.90
18658;DHT22;9458;50.942;5.074;2023-12-07T08:28:50;3.60;99.90
18658;DHT22;9458;50.942;5.074;2023-12-07T08:31:19;3.70;99.90
18658;DHT22;9458;50.942;5.074;2023-12-07T08:33:48;3.30;99.90
18658;DHT22;9458;50.942;5.074;2023-12-07T08:36:15;3.30;99.90
18658;DHT22;9458;50.942;5.074;2023-12-07T08:38:42;3.50;99.90
18658;DHT22;9458;50.942;5.074;2023-12-07T08:41:09;3.70;99.90
18658;DHT22;9458;50.942;5.074;2023-12-07T08:43:36;4.00;99.90
18658;DHT22;9458;50.942;5.074;2023-12-07T08:46:05;4.30;99.90
18658;DHT22;9458;50.942;5.074;2023-12-07T08:48:32;4.50;99.90
18658;DHT22;9458;50.942;5.074;2023-12-07T08:50:59;4.70;99.90
18658;DHT22;9458;50.942;5.074;2023-12-07T08:53:27;4.90;99.90
18658;DHT22;9458;50.942;5.074;2023-12-07T08:55:54;4.90;99.90
18658;DHT22;9458;50.942;5.074;2023-12-07T08:58:21;5.00;99.90
18658;DHT22;9458;50.942;5.074;2023-12-07T09:00:48;4.80;99.90
18658;DHT22;9458;50.942;5.074;2023-12-07T09:03:17;4.60;99.90
18658;DHT22;9458;50.942;5.074;2023-12-07T09:05:44;4.50;99.90
18658;DHT22;9458;50.942;5.074;2023-12-07T09:08:11;4.70;99.90
18658;DHT22;9458;50.942;5.074;2023-12-07T09:10:38;4.80;99.90
18658;DHT22;9458;50.942;5.074;2023-12-07T09:13:05;4.90;99.90
18658;DHT22;9458;50.942;5.074;2023-12-07T09:15:32;4.60;99.90
18658;DHT22;9458;50.942;5.074;2023-12-07T09:18:00;4.40;99.90
18658;DHT22;9458;50.942;5.074;2023-12-07T09:20:28;4.40;99.90
18658;DHT22;9458;50.942;5.074;2023-12-07T09:22:55;4.30;99.90
18658;DHT22;9458;50.942;5.074;2023-12-07T09:25:22;4.50;99.90
18658;DHT22;9458;50.942;5.074;2023-12-07T09:27:53;4.50;99.90
18658;DHT22;9458;50.942;5.074;2023-12-07T09:30:20;4.60;99.90
18658;DHT22;9458;50.942;5.074;2023-12-07T09:32:46;4.80;99.90
18658;DHT22;9458;50.942;5.074;2023-12-07T09:35:13;4.70;99.90
18658;DHT22;9458;50.942;5.074;2023-12-07T09:37:46;4.60;99.90
18658;DHT22;9458;50.942;5.074;2023-12-07T09:40:16;4.60;99.90
18658;DHT22;9458;50.942;5.074;2023-12-07T09:42:46;4.50;99.90
18658;DHT22;9458;50.942;5.074;2023-12-07T09:45:13;4.60;99.90
18658;DHT22;9458;50.942;5.074;2023-12-07T09:47:42;4.50;99.90
18658;DHT22;9458;50.942;5.074;2023-12-07T09:50:09;4.50;99.90
18658;DHT22;9458;50.942;5.074;2023-12-07T09:52:37;4.50;99.90
18658;DHT22;9458;50.942;5.074;2023-12-07T09:55:06;4.40;99.90
18658;DHT22;9458;50.942;5.074;2023-12-07T09:57:33;4.40;99.90
18658;DHT22;9458;50.942;5.074;2023-12-07T10:00:00;4.40;99.90
18658;DHT22;9458;50.942;5.074;2023-12-07T10:02:27;4.50;99.90
18658;DHT22;9458;50.942;5.074;2023-12-07T10:05:04;4.50;99.90
18658;DHT22;9458;50.942;5.074;2023-12-07T10:07:35;4.70;99.90
18658;DHT22;9458;50.942;5.074;2023-12-07T10:10:03;4.60;99.90
18658;DHT22;9458;50.942;5.074;2023-12-07T10:12:32;4.60;99.90
18658;DHT22;9458;50.942;5.074;2023-12-07T10:15:00;4.60;99.90
18658;DHT22;9458;50.942;5.074;2023-12-07T10:17:43;4.70;99.90
18658;DHT22;9458;50.942;5.074;2023-12-07T10:20:10;4.60;99.90
18658;DHT22;9458;50.942;5.074;2023-12-07T10:22:38;4.70;99.90
18658;DHT22;9458;50.942;5.074;2023-12-07T10:25:05;4.70;99.90
18658;DHT22;9458;50.942;5.074;2023-12-07T10:27:34;4.70;99.90
18658;DHT22;9458;50.942;5.074;2023-12-07T10:30:01;4.70;99.90
18658;DHT22;9458;50.942;5.074;2023-12-07T10:32:28;4.70;99.90
18658;DHT22;9458;50.942;5.074;2023-12-07T10:34:55;4.70;99.90
18658;DHT22;9458;50.942;5.074;2023-12-07T10:37:24;4.80;99.90
18658;DHT22;9458;50.942;5.074;2023-12-07T10:39:51;4.80;99.90
18658;DHT22;9458;50.942;5.074;2023-12-07T10:42:21;4.80;99.90
18658;DHT22;9458;50.942;5.074;2023-12-07T10:44:53;4.80;99.90
18658;DHT22;9458;50.942;5.074;2023-12-07T10:47:22;4.90;99.90
18658;DHT22;9458;50.942;5.074;2023-12-07T10:49:51;5.00;99.90
18658;DHT22;9458;50.942;5.074;2023-12-07T10:52:20;4.90;99.90
18658;DHT22;9458;50.942;5.074;2023-12-07T10:54:50;4.90;99.90
18658;DHT22;9458;50.942;5.074;2023-12-07T10:57:17;5.00;99.90
18658;DHT22;9458;50.942;5.074;2023-12-07T10:59:47;5.10;99.90
18658;DHT22;9458;50.942;5.074;2023-12-07T11:02:17;5.20;99.90
18658;DHT22;9458;50.942;5.074;2023-12-07T11:04:45;5.10;99.90
18658;DHT22;9458;50.942;5.074;2023-12-07T11:07:14;5.10;99.90
18658;DHT22;9458;50.942;5.074;2023-12-07T11:09:45;5.20;99.90
18658;DHT22;9458;50.942;5.074;2023-12-07T11:12:17;5.30;99.90
18658;DHT22;9458;50.942;5.074;2023-12-07T11:14:45;5.30;99.90
18658;DHT22;9458;50.942;5.074;2023-12-07T11:17:13;5.40;99.90
18658;DHT22;9458;50.942;5.074;2023-12-07T11:19:47;5.40;99.90
18658;DHT22;9458;50.942;5.074;2023-12-07T11:22:14;5.40;99.90
18658;DHT22;9458;50.942;5.074;2023-12-07T11:24:53;5.40;99.90
18658;DHT22;9458;50.942;5.074;2023-12-07T11:27:23;5.40;99.90
18658;DHT22;9458;50.942;5.074;2023-12-07T11:29:51;5.30;99.90
18658;DHT22;9458;50.942;5.074;2023-12-07T11:32:17;5.30;99.90
18658;DHT22;9458;50.942;5.074;2023-12-07T11:34:44;5.30;99.90
18658;DHT22;9458;50.942;5.074;2023-12-07T11:37:14;5.30;99.90
18658;DHT22;9458;50.942;5.074;2023-12-07T11:39:41;5.40;99.90
18658;DHT22;9458;50.942;5.074;2023-12-07T11:42:11;5.30;99.90
18658;DHT22;9458;50.942;5.074;2023-12-07T11:44:38;5.30;99.90
18658;DHT22;9458;50.942;5.074;2023-12-07T11:47:05;5.30;99.90
18658;DHT22;9458;50.942;5.074;2023-12-07T11:49:33;5.30;99.90
18658;DHT22;9458;50.942;5.074;2023-12-07T11:52:00;5.30;99.90
18658;DHT22;9458;50.942;5.074;2023-12-07T11:54:28;5.30;99.90
18658;DHT22;9458;50.942;5.074;2023-12-07T11:56:56;5.40;99.90
18658;DHT22;9458;50.942;5.074;2023-12-07T11:59:24;5.50;99.90
18658;DHT22;9458;50.942;5.074;2023-12-07T12:01:51;5.40;99.90
18658;DHT22;9458;50.942;5.074;2023-12-07T12:04:18;5.50;99.90
18658;DHT22;9458;50.942;5.074;2023-12-07T12:06:45;5.60;99.90
18658;DHT22;9458;50.942;5.074;2023-12-07T12:09:12;5.50;99.90
18658;DHT22;9458;50.942;5.074;2023-12-07T12:11:45;5.60;99.90
18658;DHT22;9458;50.942;5.074;2023-12-07T12:14:13;5.60;99.90
18658;DHT22;9458;50.942;5.074;2023-12-07T12:16:40;5.60;99.90
18658;DHT22;9458;50.942;5.074;2023-12-07T12:19:07;5.70;99.90
18658;DHT22;9458;50.942;5.074;2023-12-07T12:21:34;5.80;99.90
18658;DHT22;9458;50.942;5.074;2023-12-07T12:24:04;5.80;99.90
18658;DHT22;9458;50.942;5.074;2023-12-07T12:26:31;5.70;99.90
18658;DHT22;9458;50.942;5.074;2023-12-07T12:29:00;5.70;99.90
18658;DHT22;9458;50.942;5.074;2023-12-07T12:31:27;5.80;99.90
18658;DHT22;9458;50.942;5.074;2023-12-07T12:33:54;5.70;99.90
18658;DHT22;9458;50.942;5.074;2023-12-07T12:36:21;5.70;99.90
18658;DHT22;9458;50.942;5.074;2023-12-07T12:38:52;5.70;99.90
18658;DHT22;9458;50.942;5.074;2023-12-07T12:41:19;5.70;99.90
18658;DHT22;9458;50.942;5.074;2023-12-07T12:43:46;5.70;99.90
18658;DHT22;9458;50.942;5.074;2023-12-07T12:46:15;5.70;99.90
18658;DHT22;9458;50.942;5.074;2023-12-07T12:48:55;5.60;99.90
18658;DHT22;9458;50.942;5.074;2023-12-07T12:51:23;5.50;99.90
18658;DHT22;9458;50.942;5.074;2023-12-07T12:53:50;5.50;99.90
18658;DHT22;9458;50.942;5.074;2023-12-07T12:56:18;5.40;99.90
18658;DHT22;9458;50.942;5.074;2023-12-07T12:58:45;5.50;99.90
18658;DHT22;9458;50.942;5.074;2023-12-07T13:01:12;5.50;99.90
18658;DHT22;9458;50.942;5.074;2023-12-07T13:03:41;5.40;99.90
18658;DHT22;9458;50.942;5.074;2023-12-07T13:06:07;5.40;99.90
18658;DHT22;9458;50.942;5.074;2023-12-07T13:08:34;5.50;99.90
18658;DHT22;9458;50.942;5.074;2023-12-07T13:11:01;5.50;99.90
18658;DHT22;9458;50.942;5.074;2023-12-07T13:13:28;5.50;99.90
18658;DHT22;9458;50.942;5.074;2023-12-07T13:15:55;5.60;99.90
18658;DHT22;9458;50.942;5.074;2023-12-07T13:18:22;5.60;99.90
18658;DHT22;9458;50.942;5.074;2023-12-07T13:20:51;5.60;99.90
18658;DHT22;9458;50.942;5.074;2023-12-07T13:23:18;5.70;99.90
18658;DHT22;9458;50.942;5.074;2023-12-07T13:25:46;5.60;99.90
18658;DHT22;9458;50.942;5.074;2023-12-07T13:28:13;5.70;99.90
18658;DHT22;9458;50.942;5.074;2023-12-07T13:30:40;5.70;99.90
18658;DHT22;9458;50.942;5.074;2023-12-07T13:33:07;5.60;99.90
18658;DHT22;9458;50.942;5.074;2023-12-07T13:35:34;5.60;99.90
18658;DHT22;9458;50.942;5.074;2023-12-07T13:38:03;5.70;99.90
18658;DHT22;9458;50.942;5.074;2023-12-07T13:40:30;5.70;99.90
18658;DHT22;9458;50.942;5.074;2023-12-07T13:42:57;5.70;99.90
18658;DHT22;9458;50.942;5.074;2023-12-07T13:45:24;5.60;99.90
18658;DHT22;9458;50.942;5.074;2023-12-07T13:47:51;5.70;99.90
18658;DHT22;9458;50.942;5.074;2023-12-07T13:50:18;5.60;99.90
18658;DHT22;9458;50.942;5.074;2023-12-07T13:52:45;5.60;99.90
18658;DHT22;9458;50.942;5.074;2023-12-07T13:55:13;5.60;99.90
18658;DHT22;9458;50.942;5.074;2023-12-07T13:57:40;5.50;99.90
18658;DHT22;9458;50.942;5.074;2023-12-07T14:00:07;5.50;99.90
18658;DHT22;9458;50.942;5.074;2023-12-07T14:02:38;5.60;99.90
18658;DHT22;9458;50.942;5.074;2023-12-07T14:05:05;5.50;99.90
18658;DHT22;9458;50.942;5.074;2023-12-07T14:07:32;5.50;99.90
18658;DHT22;9458;50.942;5.074;2023-12-07T14:09:58;5.50;99.90
18658;DHT22;9458;50.942;5.074;2023-12-07T14:12:28;5.50;99.90
18658;DHT22;9458;50.942;5.074;2023-12-07T14:14:54;5.40;99.90
18658;DHT22;9458;50.942;5.074;2023-12-07T14:17:21;5.40;99.90
18658;DHT22;9458;50.942;5.074;2023-12-07T14:19:49;5.50;99.90
18658;DHT22;9458;50.942;5.074;2023-12-07T14:22:15;5.40;99.90
18658;DHT22;9458;50.942;5.074;2023-12-07T14:24:42;5.40;99.90
18658;DHT22;9458;50.942;5.074;2023-12-07T14:27:09;5.40;99.90
18658;DHT22;9458;50.942;5.074;2023-12-07T14:29:38;5.40;99.90
18658;DHT22;9458;50.942;5.074;2023-12-07T14:32:05;5.40;99.90
18658;DHT22;9458;50.942;5.074;2023-12-07T14:34:35;5.40;99.90
18658;DHT22;9458;50.942;5.074;2023-12-07T14:37:03;5.50;99.90
18658;DHT22;9458;50.942;5.074;2023-12-07T14:39:31;5.40;99.90
18658;DHT22;9458;50.942;5.074;2023-12-07T14:41:59;5.40;99.90
18658;DHT22;9458;50.942;5.074;2023-12-07T14:44:25;5.30;99.90
18658;DHT22;9458;50.942;5.074;2023-12-07T14:46:54;5.30;99.90
18658;DHT22;9458;50.942;5.074;2023-12-07T14:49:21;5.20;99.90
18658;DHT22;9458;50.942;5.074;2023-12-07T14:51:48;5.30;99.90
18658;DHT22;9458;50.942;5.074;2023-12-07T14:54:15;5.20;99.90
18658;DHT22;9458;50.942;5.074;2023-12-07T14:56:42;5.30;99.90
18658;DHT22;9458;50.942;5.074;2023-12-07T14:59:10;5.30;99.90
18658;DHT22;9458;50.942;5.074;2023-12-07T15:01:37;5.30;99.90
18658;DHT22;9458;50.942;5.074;2023-12-07T15:04:05;5.30;99.90
18658;DHT22;9458;50.942;5.074;2023-12-07T15:06:32;5.30;99.90
18658;DHT22;9458;50.942;5.074;2023-12-07T15:09:00;5.30;99.90
18658;DHT22;9458;50.942;5.074;2023-12-07T15:11:30;5.20;99.90
18658;DHT22;9458;50.942;5.074;2023-12-07T15:13:57;5.20;99.90
18658;DHT22;9458;50.942;5.074;2023-12-07T15:16:24;5.30;99.90
18658;DHT22;9458;50.942;5.074;2023-12-07T15:18:51;5.30;99.90
18658;DHT22;9458;50.942;5.074;2023-12-07T15:21:20;5.30;99.90
18658;DHT22;9458;50.942;5.074;2023-12-07T15:23:48;5.10;99.90
18658;DHT22;9458;50.942;5.074;2023-12-07T15:26:15;5.00;99.90
18658;DHT22;9458;50.942;5.074;2023-12-07T15:28:42;5.00;99.90
18658;DHT22;9458;50.942;5.074;2023-12-07T15:31:09;4.90;99.90
18658;DHT22;9458;50.942;5.074;2023-12-07T15:33:36;5.00;99.90
18658;DHT22;9458;50.942;5.074;2023-12-07T15:36:03;5.00;99.90
18658;DHT22;9458;50.942;5.074;2023-12-07T15:38:31;5.00;99.90
18658;DHT22;9458;50.942;5.074;2023-12-07T15:40:58;5.00;99.90
18658;DHT22;9458;50.942;5.074;2023-12-07T15:43:28;5.00;99.90
18658;DHT22;9458;50.942;5.074;2023-12-07T15:45:55;5.10;99.90
18658;DHT22;9458;50.942;5.074;2023-12-07T15:48:21;5.10;99.90
18658;DHT22;9458;50.942;5.074;2023-12-07T15:50:49;5.10;99.90
18658;DHT22;9458;50.942;5.074;2023-12-07T15:53:16;5.10;99.90
18658;DHT22;9458;50.942;5.074;2023-12-07T15:55:46;5.10;99.90
18658;DHT22;9458;50.942;5.074;2023-12-07T15:58:13;5.10;99.90
18658;DHT22;9458;50.942;5.074;2023-12-07T16:00:43;5.10;99.90
18658;DHT22;9458;50.942;5.074;2023-12-07T16:03:09;4.90;99.90